メインページ
METAR-TAF:

METAR-TAF

空港 :

ナタール, リオグランデ・ド・ノルテ州, ブラジル

緯度: 05-46-05S, 経度: 035-22-34W, 海抜: 88m

現時点の気象観測

当レポートは52分前の01:00(UTC)に作成
南/南西の風 5kt
気温 23°C
湿度 89%
気圧 1015 hPa
視程10km以上
1,500メートル以下は雲なし、積乱雲なし

METAR: SBSG 260100Z 21005KT CAVOK 23/21 Q1015

時間: 22:52 (01:52 UTC)

予報

当レポートは3時間52分前の22:00(UTC)に作成
予報は26日の 00時(UTC)から 26日の 24時(UTC)まで有効
南西の風 7kt
視程: 7000m
高度1700ftの千切れ雲あり
26日の 01時(UTC)から 26日の 05時(UTC)まで一時的に
視程: 5000m
高度1000ftの千切れ雲あり
雨, 靄
26日の 08時(UTC)から 26日の 12時(UTC)まで一時的に
視程: 5000m
高度1200ftの千切れ雲あり
間 26から1 UTC徐々に
の風 10kt
26日の 15時(UTC)から 26日の 17時(UTC)まで徐々に
高度1800ftの雲は散在している
高度2500ftの雲は散在している
26日の 21時(UTC)から 26日の 23時(UTC)まで徐々に
南/南西の風 7kt

TAF: SBSG 252200Z 2600/2624 22007KT 7000 BKN017 TN23/2608Z TX27/2616Z TEMPO 2601/2605 5000 RA BR BKN010 TEMPO 2608/2612 5000 RA BKN012 BECMG 261 1/2613 19010KT BECMG 2615/2617 SCT018 SCT025 BECMG 2621/2623 20007KT RMK PE U

4,000以上の空港の気象観測と天気予報(METAR報とTAF報)

利用可能な観測所は地図上に黄色い丸と赤い丸で示す。

丸の上にカーソルを重ねると観測所名を参照できる。

次にクリックすると気象観測と天気予報を参照できる。

マップの切り替え:黒色「×」印の緑ボタンをクリックして拡大、「-」印の緑ボタンをクリックして縮小、緑色の三角印をクリックして隣りの地図に切り替え


METAR-TAF: